Time;durP1;ratioP1;P1;durP2;ratioP2;P2;SDS_P1;SDS_P2;PMS_P1;PMS_P2;Temp;Humidity;BMP_temperature;BMP_pressure;BME280_temperature;BME280_humidity;BME280_pressure;Samples;Min_cycle;Max_cycle;Signal;HPM_P1;HPM_P2
2022/03/07 00:01:50;;;;;;;14.90;10.98;;;;;;;-2.15;100.00;66548.97;5001211;28;20053;-86
2022/03/07 00:04:17;;;;;;;16.20;11.43;;;;;;;-2.23;100.00;66540.53;5015615;28;20475;-86
2022/03/07 00:06:46;;;;;;;17.27;11.55;;;;;;;-2.25;100.00;66535.69;5001032;28;20137;-87
2022/03/07 00:09:12;;;;;;;17.92;12.10;;;;;;;-2.30;100.00;66530.09;5034474;28;20126;-87
2022/03/07 00:11:38;;;;;;;15.98;11.45;;;;;;;-2.30;100.00;66527.47;5003654;28;20594;-85
2022/03/07 00:14:04;;;;;;;16.15;11.55;;;;;;;-2.40;100.00;66524.06;5018445;28;20049;-88
2022/03/07 00:16:30;;;;;;;16.42;11.77;;;;;;;-2.36;100.00;66523.34;5003169;28;20050;-85
2022/03/07 00:18:55;;;;;;;14.25;11.93;;;;;;;-2.42;100.00;66519.22;5010251;28;20046;-87
2022/03/07 00:21:21;;;;;;;14.98;11.43;;;;;;;-2.46;100.00;66512.69;5000907;28;20149;-86
2022/03/07 00:23:47;;;;;;;15.75;10.57;;;;;;;-2.52;100.00;66511.72;4984839;28;20050;-86
2022/03/07 00:26:12;;;;;;;14.98;11.45;;;;;;;-2.48;100.00;66507.28;4987674;28;20545;-87
2022/03/07 00:28:38;;;;;;;16.40;11.43;;;;;;;-2.51;100.00;66507.06;4996061;28;20050;-86
2022/03/07 00:31:05;;;;;;;15.10;12.13;;;;;;;-2.54;100.00;66506.31;4985442;28;20430;-87
2022/03/07 00:33:31;;;;;;;15.65;12.65;;;;;;;-2.58;100.00;66499.78;5012805;28;20153;-87
2022/03/07 00:35:57;;;;;;;15.27;12.45;;;;;;;-2.56;100.00;66498.84;5033607;28;20625;-87
2022/03/07 00:38:23;;;;;;;16.15;12.07;;;;;;;-2.66;100.00;66498.63;5002750;28;20053;-86
2022/03/07 00:40:49;;;;;;;19.02;13.57;;;;;;;-2.60;100.00;66502.75;5003248;28;20034;-85
2022/03/07 00:43:14;;;;;;;20.50;13.68;;;;;;;-2.64;100.00;66495.66;5018844;28;20100;-85
2022/03/07 00:45:40;;;;;;;19.40;13.25;;;;;;;-2.60;100.00;66499.59;5001876;28;20038;-88
2022/03/07 00:48:07;;;;;;;19.48;13.45;;;;;;;-2.70;100.00;66490.97;5008108;28;20050;-85
2022/03/07 00:50:35;;;;;;;20.27;14.07;;;;;;;-2.76;100.00;66482.22;5024016;28;20042;-86
2022/03/07 00:53:11;;;;;;;18.13;13.07;;;;;;;-2.68;100.00;66488.56;5019739;28;20482;-85
2022/03/07 00:55:38;;;;;;;17.58;13.07;;;;;;;-2.69;100.00;66487.44;5017827;28;20038;-84
2022/03/07 00:58:10;;;;;;;20.35;14.18;;;;;;;-2.82;100.00;66478.66;4975575;28;20101;-86
2022/03/07 01:00:36;;;;;;;20.80;13.65;;;;;;;-2.79;100.00;66473.63;4999154;28;20133;-85
2022/03/07 01:03:04;;;;;;;18.83;13.15;;;;;;;-2.78;100.00;66474.75;4988511;28;20732;-86
2022/03/07 01:05:38;;;;;;;18.60;12.77;;;;;;;-2.84;100.00;66473.78;5029562;28;20403;-85
2022/03/07 01:08:03;;;;;;;24.95;13.65;;;;;;;-2.87;100.00;66469.88;5003767;28;20045;-85
2022/03/07 01:10:30;;;;;;;21.38;13.90;;;;;;;-2.91;100.00;66465.38;5005733;28;20461;-85
2022/03/07 01:12:57;;;;;;;21.20;14.25;;;;;;;-2.87;100.00;66467.28;5035375;28;20495;-87
2022/03/07 01:15:25;;;;;;;22.17;13.57;;;;;;;-2.90;100.00;66466.50;5007073;28;20048;-86
2022/03/07 01:18:07;;;;;;;21.35;14.95;;;;;;;-2.90;100.00;66461.88;5012325;28;20133;-86
2022/03/07 01:20:33;;;;;;;17.30;12.80;;;;;;;-2.97;100.00;66459.78;5019291;28;20529;-85
2022/03/07 01:23:05;;;;;;;17.63;12.70;;;;;;;-3.03;100.00;66450.44;5011134;28;20073;-86
2022/03/07 01:25:34;;;;;;;18.60;12.55;;;;;;;-3.02;100.00;66451.56;4975817;28;20571;-85
2022/03/07 01:28:05;;;;;;;19.13;13.23;;;;;;;-3.06;100.00;66447.06;5007854;28;20042;-85
2022/03/07 01:30:31;;;;;;;18.77;12.48;;;;;;;-3.09;100.00;66443.72;5002686;28;20038;-86
2022/03/07 01:32:58;;;;;;;17.80;13.35;;;;;;;-3.04;100.00;66449.31;5038112;28;20140;-85
2022/03/07 01:35:29;;;;;;;20.42;12.43;;;;;;;-3.10;100.00;66442.59;5004066;28;20052;-86
2022/03/07 01:37:55;;;;;;;17.42;13.23;;;;;;;-3.09;100.00;66443.72;5018865;28;20044;-85
2022/03/07 01:40:21;;;;;;;19.70;13.55;;;;;;;-3.09;100.00;66448.91;5006094;28;20042;-85
2022/03/07 01:42:46;;;;;;;16.33;12.38;;;;;;;-3.07;100.00;66450.63;4984235;28;20081;-86
2022/03/07 01:45:18;;;;;;;18.65;13.00;;;;;;;-3.15;100.00;66439.59;5020512;28;20042;-86
2022/03/07 01:47:46;;;;;;;18.00;12.45;;;;;;;-3.12;100.00;66442.97;5041028;28;20450;-85
2022/03/07 01:50:16;;;;;;;18.63;14.07;;;;;;;-3.12;100.00;66440.34;5006719;28;20057;-85
2022/03/07 01:52:44;;;;;;;19.35;13.13;;;;;;;-3.14;100.00;66438.09;5002255;28;20053;-85
2022/03/07 01:55:11;;;;;;;18.98;14.43;;;;;;;-3.12;100.00;66442.97;5035372;28;20038;-87
2022/03/07 01:57:46;;;;;;;21.45;13.43;;;;;;;-3.13;100.00;66443.88;5003454;28;20461;-85
2022/03/07 02:00:28;;;;;;;18.73;13.43;;;;;;;-3.17;100.00;66434.75;5007932;28;20048;-85
2022/03/07 02:03:02;;;;;;;15.93;10.75;;;;;;;-3.25;100.00;66434.16;4994940;28;20144;-86
2022/03/07 02:05:30;;;;;;;19.17;13.48;;;;;;;-3.21;100.00;66432.88;5006400;28;20049;-85
2022/03/07 02:08:04;;;;;;;20.25;13.73;;;;;;;-3.15;100.00;66439.03;4987550;28;20548;-85
2022/03/07 02:10:30;;;;;;;20.70;13.10;;;;;;;-3.10;100.00;66445.19;4991613;28;20107;-86
2022/03/07 02:12:55;;;;;;;19.90;14.00;;;;;;;-3.05;100.00;66453.41;4988650;28;20026;-86
2022/03/07 02:15:25;;;;;;;20.23;13.88;;;;;;;-3.09;100.00;66443.72;5003762;28;20154;-85
2022/03/07 02:17:52;;;;;;;19.92;14.27;;;;;;;-3.08;100.00;66446.88;4998022;28;20041;-86
2022/03/07 02:20:17;;;;;;;18.95;13.90;;;;;;;-3.05;100.00;66453.41;5004860;28;20053;-86
2022/03/07 02:22:44;;;;;;;19.45;13.60;;;;;;;-3.06;100.00;66449.13;4997652;28;20045;-85
2022/03/07 02:25:09;;;;;;;18.73;13.43;;;;;;;-3.16;100.00;66433.28;5001742;28;20060;-86
2022/03/07 02:27:35;;;;;;;19.33;13.57;;;;;;;-3.18;100.00;66434.19;5027434;28;20046;-85
2022/03/07 02:30:09;;;;;;;20.23;13.35;;;;;;;-3.20;100.00;66434.53;5001173;28;20061;-85
2022/03/07 02:32:34;;;;;;;19.20;14.43;;;;;;;-3.26;100.00;66427.25;4986604;28;20045;-85
2022/03/07 02:35:01;;;;;;;19.85;14.95;;;;;;;-3.30;100.00;66422.78;5028872;28;22322;-85
2022/03/07 02:37:33;;;;;;;18.92;13.75;;;;;;;-3.37;100.00;66414.94;5004395;28;20037;-85
2022/03/07 02:40:00;;;;;;;20.40;13.23;;;;;;;-3.38;100.00;66413.81;5014000;28;20038;-86
2022/03/07 02:42:31;;;;;;;18.27;12.82;;;;;;;-3.36;100.00;66416.06;4988009;28;21577;-85
2022/03/07 02:44:59;;;;;;;18.90;13.40;;;;;;;-3.48;100.00;66408.94;5003387;28;20096;-85
2022/03/07 02:47:29;;;;;;;18.77;14.18;;;;;;;-3.43;100.00;66413.97;4987083;28;20050;-86
2022/03/07 02:50:04;;;;;;;18.73;13.10;;;;;;;-3.38;100.00;66413.81;4995526;28;20599;-85
2022/03/07 02:52:32;;;;;;;21.40;13.63;;;;;;;-3.38;100.00;66413.81;5016311;28;20046;-85
2022/03/07 02:55:05;;;;;;;19.50;13.88;;;;;;;-3.40;100.00;66414.72;4990409;28;20391;-85
2022/03/07 02:57:31;;;;;;;21.67;14.30;;;;;;;-3.37;100.00;66414.94;5001590;28;20055;-85
2022/03/07 02:59:59;;;;;;;18.13;10.70;;;;;;;-3.51;100.00;66400.38;5006993;28;20410;-86
2022/03/07 03:02:26;;;;;;;17.42;12.70;;;;;;;-3.55;100.00;66393.28;5004985;28;20566;-86
2022/03/07 03:04:54;;;;;;;19.80;14.32;;;;;;;-3.44;100.00;66408.22;5003063;28;20111;-86
2022/03/07 03:07:25;;;;;;;19.42;13.27;;;;;;;-3.45;100.00;66406.53;5015394;28;20514;-84
2022/03/07 03:09:51;;;;;;;22.30;16.10;;;;;;;-3.44;100.00;66405.59;5022066;28;20124;-85
2022/03/07 03:12:16;;;;;;;20.13;14.23;;;;;;;-3.37;100.00;66409.72;5006337;28;20853;-85
2022/03/07 03:14:43;;;;;;;21.58;14.77;;;;;;;-3.46;100.00;66408.56;5035065;28;20041;-86
2022/03/07 03:17:14;;;;;;;24.05;16.20;;;;;;;-3.40;100.00;66410.09;5011424;28;20054;-85
2022/03/07 03:19:44;;;;;;;23.00;15.32;;;;;;;-3.43;100.00;66409.31;5013896;28;20365;-86
2022/03/07 03:22:10;;;;;;;20.15;14.25;;;;;;;-3.42;100.00;66409.91;4983710;28;20039;-85
2022/03/07 03:24:35;;;;;;;22.42;14.40;;;;;;;-3.40;100.00;66412.69;4990950;28;20056;-86
2022/03/07 03:27:02;;;;;;;20.50;15.80;;;;;;;-3.35;100.00;66417.19;4974758;28;20042;-86
2022/03/07 03:29:30;;;;;;;21.90;15.38;;;;;;;-3.30;100.00;66425.38;4987813;28;20041;-85
2022/03/07 03:31:58;;;;;;;22.33;16.77;;;;;;;-3.20;100.00;66431.38;5013909;28;20088;-86
2022/03/07 03:34:25;;;;;;;22.40;16.35;;;;;;;-3.21;100.00;66433.44;4992936;28;20063;-85
2022/03/07 03:36:52;;;;;;;23.05;17.00;;;;;;;-3.13;100.00;66441.28;5035545;28;20723;-85
2022/03/07 03:39:19;;;;;;;22.75;15.15;;;;;;;-3.12;100.00;66442.97;4990595;28;20125;-85
2022/03/07 03:41:44;;;;;;;23.50;16.27;;;;;;;-3.07;100.00;66445.97;5031301;28;20050;-85
2022/03/07 03:44:12;;;;;;;24.33;18.23;;;;;;;-2.94;100.00;66465.19;5000048;28;20049;-86
2022/03/07 03:46:37;;;;;;;22.88;15.65;;;;;;;-3.03;100.00;66453.03;5033814;28;20042;-85
2022/03/07 03:49:04;;;;;;;25.67;17.85;;;;;;;-2.88;100.00;66466.13;5024047;28;20037;-86
2022/03/07 03:51:34;;;;;;;28.02;17.48;;;;;;;-2.85;100.00;66474.72;5002442;28;20595;-85
2022/03/07 03:54:12;;;;;;;26.42;19.45;;;;;;;-2.78;100.00;66479.97;4994770;28;20121;-86
2022/03/07 03:56:40;;;;;;;26.73;21.05;;;;;;;-2.77;100.00;66484.25;4976935;28;20772;-86
2022/03/07 03:59:12;;;;;;;27.48;18.48;;;;;;;-2.76;100.00;66487.44;5006191;28;20053;-86
2022/03/07 04:01:38;;;;;;;26.60;20.33;;;;;;;-2.73;100.00;66485.56;4989366;28;20050;-85
2022/03/07 04:04:05;;;;;;;25.88;17.45;;;;;;;-2.68;100.00;66490.63;4997867;28;20038;-84
2022/03/07 04:06:31;;;;;;;29.58;21.67;;;;;;;-2.60;100.00;66496.97;4988866;28;20062;-85
2022/03/07 04:09:01;;;;;;;25.30;18.13;;;;;;;-2.61;100.00;66493.25;5006990;28;20081;-85
2022/03/07 04:11:35;;;;;;;29.95;19.60;;;;;;;-2.59;100.00;66498.09;5019020;28;20073;-86
2022/03/07 04:14:08;;;;;;;26.77;18.20;;;;;;;-2.58;100.00;66502.41;5007879;28;20037;-87
2022/03/07 04:16:38;;;;;;;26.73;18.67;;;;;;;-2.53;100.00;66508.00;5018094;28;20057;-86
2022/03/07 04:19:16;;;;;;;25.92;19.38;;;;;;;-2.42;100.00;66521.81;5013714;28;20395;-85
2022/03/07 04:21:46;;;;;;;23.75;16.92;;;;;;;-2.42;100.00;66519.22;5036187;28;20042;-85
2022/03/07 04:24:12;;;;;;;27.40;19.25;;;;;;;-2.40;100.00;66521.47;4998111;28;20116;-85
2022/03/07 04:26:55;;;;;;;28.48;18.98;;;;;;;-2.35;100.00;66529.69;5007108;28;20438;-85
2022/03/07 04:29:20;;;;;;;26.70;20.05;;;;;;;-2.32;100.00;66528.41;4957711;28;20058;-84
2022/03/07 04:31:45;;;;;;;26.48;15.82;;;;;;;-2.41;100.00;66520.91;5000138;28;20034;-85
2022/03/07 04:34:14;;;;;;;26.35;19.23;;;;;;;-2.25;100.00;66538.28;5008360;28;20069;-84
2022/03/07 04:36:40;;;;;;;30.87;18.70;;;;;;;-2.18;100.00;66543.53;5016113;28;20026;-85
2022/03/07 04:39:07;;;;;;;27.10;19.15;;;;;;;-2.16;100.00;66545.22;5007849;28;20029;-85
2022/03/07 04:41:33;;;;;;;30.38;19.10;;;;;;;-2.14;100.00;66547.47;5009951;28;20042;-86
2022/03/07 04:43:59;;;;;;;26.58;17.90;;;;;;;-2.14;100.00;66550.63;5005046;28;20510;-87
2022/03/07 04:46:27;;;;;;;29.73;20.52;;;;;;;-2.05;100.00;66558.13;4994655;28;20045;-89
2022/03/07 04:48:55;;;;;;;28.98;19.40;;;;;;;-1.99;100.00;66564.28;5025837;28;20042;-88
2022/03/07 04:51:23;;;;;;;28.85;18.60;;;;;;;;;;5005738;28;20042;-85
2022/03/07 04:53:50;;;;;;;27.60;17.00;;;;;;;-2.02;100.00;66558.31;5036267;28;20038;-86
2022/03/07 04:56:19;;;;;;;31.23;19.48;;;;;;;-1.98;100.00;66567.47;5025146;28;20073;-83
2022/03/07 04:58:46;;;;;;;30.50;21.40;;;;;;;-1.88;100.00;66581.31;5018259;28;20556;-85
2022/03/07 05:01:14;;;;;;;28.60;19.48;;;;;;;-1.92;100.00;66574.78;5034658;28;20049;-85
2022/03/07 05:03:41;;;;;;;29.52;18.80;;;;;;;-1.90;100.00;66577.03;5024855;28;20100;-86
2022/03/07 05:06:17;;;;;;;30.23;17.60;;;;;;;-1.90;100.00;66574.41;4993662;28;20062;-85
2022/03/07 05:08:46;;;;;;;27.17;17.45;;;;;;;-1.93;100.00;66568.41;5003192;28;20050;-85
2022/03/07 05:11:12;;;;;;;30.35;19.52;;;;;;;-1.90;100.00;66576.44;5020127;28;20061;-85
2022/03/07 05:13:43;;;;;;;27.35;19.70;;;;;;;-1.87;100.00;66579.81;5009138;28;20914;-84
2022/03/07 05:16:09;;;;;;;34.45;22.42;;;;;;;-1.90;100.00;66579.06;5008773;28;20038;-85
2022/03/07 05:18:34;;;;;;;27.52;19.10;;;;;;;-1.94;100.00;66571.97;4994562;28;20562;-85
2022/03/07 05:21:00;;;;;;;31.02;22.55;;;;;;;-1.89;100.00;66574.97;5001526;28;20046;-85
2022/03/07 05:23:25;;;;;;;30.63;21.25;;;;;;;-1.89;100.00;66574.97;4990144;28;20046;-85
2022/03/07 05:25:51;;;;;;;34.22;25.15;;;;;;;-1.79;100.00;66585.63;5007371;28;20042;-86
2022/03/07 05:28:16;;;;;;;32.25;22.77;;;;;;;-1.81;100.00;66583.97;4988112;28;20041;-85
2022/03/07 05:30:42;;;;;;;31.75;21.52;;;;;;;-1.79;100.00;66586.19;5005898;28;20535;-85
2022/03/07 05:33:07;;;;;;;32.72;23.33;;;;;;;-1.73;100.00;66592.91;5012755;28;20052;-85
2022/03/07 05:35:33;;;;;;;30.13;22.67;;;;;;;-1.74;100.00;66594.41;4983323;28;20049;-85
2022/03/07 05:37:58;;;;;;;31.95;22.17;;;;;;;-1.70;100.00;66596.28;5020330;28;20046;-85
2022/03/07 05:40:23;;;;;;;32.28;21.98;;;;;;;-1.69;100.00;66602.63;5002883;28;20057;-85
2022/03/07 05:42:50;;;;;;;36.00;24.73;;;;;;;-1.64;100.00;66605.66;4991488;28;20542;-85
2022/03/07 05:45:15;;;;;;;33.63;24.05;;;;;;;-1.66;100.00;66600.78;5004886;28;20594;-85
2022/03/07 05:47:41;;;;;;;34.33;22.17;;;;;;;-1.68;100.00;66600.59;5006209;28;20133;-85
2022/03/07 05:50:08;;;;;;;31.25;21.95;;;;;;;-1.65;100.00;66599.28;5008870;28;20557;-85
2022/03/07 05:52:34;;;;;;;31.38;21.77;;;;;;;-1.65;100.00;66604.50;5009102;28;20033;-85
2022/03/07 05:54:59;;;;;;;29.83;21.50;;;;;;;-1.61;100.00;66605.84;5006482;28;20566;-85
2022/03/07 05:57:25;;;;;;;32.75;22.30;;;;;;;-1.60;100.00;66610.13;5043266;28;20076;-85
2022/03/07 05:59:50;;;;;;;34.30;22.45;;;;;;;-1.59;100.00;66610.69;4992163;28;20490;-84
2022/03/07 06:02:15;;;;;;;32.42;18.88;;;;;;;-1.61;100.00;66605.84;4991613;28;20497;-85
2022/03/07 06:04:42;;;;;;;31.95;22.25;;;;;;;-1.52;100.00;66618.56;5014044;28;20142;-85
2022/03/07 06:07:07;;;;;;;31.70;19.95;;;;;;;-1.51;100.00;66619.66;4976609;28;20394;-84
2022/03/07 06:09:38;;;;;;;30.48;22.67;;;;;;;-1.51;100.00;66614.44;5020165;28;20052;-84
2022/03/07 06:12:05;;;;;;;30.10;20.45;;;;;;;-1.61;100.00;66603.25;4996007;28;20048;-85
2022/03/07 06:14:30;;;;;;;28.25;19.73;;;;;;;-1.65;100.00;66607.13;5012712;28;20089;-85
2022/03/07 06:16:56;;;;;;;30.67;20.65;;;;;;;-1.59;100.00;66608.06;5003092;28;20084;-85
2022/03/07 06:19:21;;;;;;;31.70;20.55;;;;;;;-1.53;100.00;66614.81;5007564;28;20038;-85
2022/03/07 06:21:46;;;;;;;28.77;20.45;;;;;;;-1.56;100.00;66614.06;5000311;28;20038;-85
2022/03/07 06:24:12;;;;;;;30.98;20.42;;;;;;;-1.57;100.00;66615.53;5038347;28;20050;-85
2022/03/07 06:26:37;;;;;;;43.70;21.15;;;;;;;-1.54;100.00;66618.34;5007355;28;20048;-85
2022/03/07 06:29:04;;;;;;;27.50;19.20;;;;;;;-1.59;100.00;66606.03;5008484;28;20050;-85
2022/03/07 06:31:30;;;;;;;35.03;21.67;;;;;;;-1.63;100.00;66606.19;5006537;28;20443;-85
2022/03/07 06:33:55;;;;;;;33.90;22.83;;;;;;;-1.62;100.00;66610.50;4991343;28;20068;-85
2022/03/07 06:36:20;;;;;;;33.13;26.20;;;;;;;-1.63;100.00;66601.53;5009175;28;20065;-84
2022/03/07 06:38:46;;;;;;;30.88;20.17;;;;;;;-1.72;100.00;66599.28;4992862;28;20317;-84
2022/03/07 06:41:11;;;;;;;35.90;22.90;;;;;;;-1.74;100.00;66589.19;5009246;28;20053;-84
2022/03/07 06:43:37;;;;;;;36.55;20.15;;;;;;;-1.73;100.00;66590.31;5007946;28;20050;-84
2022/03/07 06:46:03;;;;;;;33.75;21.45;;;;;;;-1.74;100.00;66591.81;5009134;28;20104;-84
2022/03/07 06:48:28;;;;;;;31.65;21.20;;;;;;;-1.65;100.00;66603.94;5008943;28;20034;-85
2022/03/07 06:50:59;;;;;;;30.90;20.88;;;;;;;-1.70;100.00;66598.91;5008684;28;20057;-85
2022/03/07 06:53:24;;;;;;;31.88;20.42;;;;;;;-1.71;100.00;66597.78;5006539;28;20052;-85
2022/03/07 06:55:51;;;;;;;37.20;27.05;;;;;;;-1.60;100.00;66609.56;5024280;28;20053;-85
2022/03/07 06:58:17;;;;;;;36.13;24.20;;;;;;;-1.65;100.00;66601.91;4982856;28;20042;-85
2022/03/07 07:00:43;;;;;;;35.95;23.50;;;;;;;-1.72;100.00;66596.09;5000384;28;20123;-84
2022/03/07 07:03:08;;;;;;;30.27;21.85;;;;;;;-1.69;100.00;66599.47;5006041;28;20049;-84
2022/03/07 07:05:33;;;;;;;31.52;22.30;;;;;;;-1.43;100.00;66628.09;4977647;28;20050;-84
2022/03/07 07:07:59;;;;;;;30.30;20.65;;;;;;;;;;5005072;28;20104;-84
2022/03/07 07:10:25;;;;;;;30.20;20.42;;;;;;;-1.60;100.00;66614.78;5001533;28;20133;-84
2022/03/07 07:12:51;;;;;;;32.45;22.15;;;;;;;-1.53;100.00;66614.25;4992309;28;20046;-84
2022/03/07 07:15:17;;;;;;;28.33;18.63;;;;;;;-1.62;100.00;66607.31;5007643;28;20038;-85
2022/03/07 07:17:42;;;;;;;32.13;21.13;;;;;;;-1.53;100.00;66614.81;5011328;28;20041;-85
2022/03/07 07:20:10;;;;;;;33.60;22.67;;;;;;;-1.47;100.00;66621.00;4987089;28;20045;-85
2022/03/07 07:22:36;;;;;;;32.67;23.15;;;;;;;-1.43;100.00;66633.31;5020236;28;20479;-85
2022/03/07 07:25:03;;;;;;;34.35;22.83;;;;;;;-1.40;100.00;66626.25;4990446;28;20044;-85
2022/03/07 07:27:29;;;;;;;32.17;20.63;;;;;;;-1.37;100.00;66635.41;5007957;28;20069;-85
2022/03/07 07:29:54;;;;;;;32.83;23.65;;;;;;;-1.24;100.00;66649.41;4991215;28;20133;-86
2022/03/07 07:32:19;;;;;;;31.58;21.27;;;;;;;-1.25;100.00;66645.13;5024472;28;20121;-85
2022/03/07 07:34:45;;;;;;;35.47;26.35;;;;;;;-1.12;100.00;66662.34;5007669;28;20041;-85
2022/03/07 07:37:10;;;;;;;38.95;25.15;;;;;;;-1.08;100.00;66661.06;5022762;28;20127;-85
2022/03/07 07:39:36;;;;;;;30.25;21.45;;;;;;;-1.02;100.00;66673.59;5004180;28;20496;-85
2022/03/07 07:42:01;;;;;;;27.58;18.02;;;;;;;-1.00;100.00;66675.28;4991248;28;20434;-85
2022/03/07 07:44:27;;;;;;;29.85;18.98;;;;;;;-0.92;100.00;66684.81;5009587;28;20396;-86
2022/03/07 07:46:53;;;;;;;28.35;19.38;;;;;;;-0.78;100.00;66702.03;5025325;28;20048;-84
2022/03/07 07:49:19;;;;;;;28.80;19.88;;;;;;;-0.83;100.00;66691.19;5010761;28;20090;-85
2022/03/07 07:51:44;;;;;;;31.05;20.65;;;;;;;-0.72;100.00;66700.94;5011301;28;20033;-86
2022/03/07 07:54:10;;;;;;;32.80;21.55;;;;;;;-0.71;100.00;66707.84;5020400;28;20049;-85
2022/03/07 07:56:35;;;;;;;30.80;22.02;;;;;;;-0.68;100.00;66708.59;5002473;28;20126;-86
2022/03/07 07:59:01;;;;;;;28.92;21.88;;;;;;;-0.58;100.00;66721.34;5007102;28;20042;-85
2022/03/07 08:01:28;;;;;;;28.98;21.90;;;;;;;-0.59;100.00;66717.59;5023064;28;20103;-85
2022/03/07 08:03:55;;;;;;;29.63;20.10;;;;;;;-0.57;100.00;66722.47;5007510;28;20091;-85
2022/03/07 08:06:20;;;;;;;32.60;22.50;;;;;;;-0.50;100.00;66730.31;5037881;28;20054;-85
2022/03/07 08:08:46;;;;;;;32.75;21.40;;;;;;;-0.45;100.00;66735.94;5021856;28;20137;-86
2022/03/07 08:11:11;;;;;;;31.38;21.70;;;;;;;-0.38;100.00;66746.41;5019883;28;20049;-84
2022/03/07 08:13:36;;;;;;;31.88;22.13;;;;;;;-0.31;100.00;66751.13;5012200;28;20145;-85
2022/03/07 08:16:02;;;;;;;32.05;21.13;;;;;;;-0.22;100.00;66756.00;5020122;28;20651;-86
2022/03/07 08:18:27;;;;;;;29.15;20.67;;;;;;;-0.14;100.00;66770.25;5014130;28;20048;-86
2022/03/07 08:20:56;;;;;;;31.30;19.90;;;;;;;-0.09;100.00;66770.06;5007278;28;20069;-87
2022/03/07 08:23:22;;;;;;;30.23;20.40;;;;;;;0.02;100.00;66787.66;5005189;28;20041;-85
2022/03/07 08:25:49;;;;;;;26.67;19.52;;;;;;;0.10;100.00;66790.88;5038024;28;20133;-86
2022/03/07 08:28:15;;;;;;;30.55;19.92;;;;;;;;;;5015926;28;20061;-84
2022/03/07 08:30:42;;;;;;;26.92;19.55;;;;;;;0.19;100.00;66804.16;4990591;28;20137;-87
2022/03/07 08:33:08;;;;;;;30.60;20.30;;;;;;;0.30;100.00;66818.03;5008751;28;20057;-85
2022/03/07 08:35:34;;;;;;;26.17;18.65;;;;;;;0.35;100.00;66818.41;5007156;28;20096;-86
2022/03/07 08:38:00;;;;;;;25.33;18.33;;;;;;;0.42;100.00;66826.84;4990438;28;20537;-89
2022/03/07 08:40:27;;;;;;;30.63;19.50;;;;;;;0.44;100.00;66831.16;5042868;28;20056;-87
2022/03/07 08:42:55;;;;;;;27.85;17.73;;;;;;;0.52;100.00;66842.19;5004456;28;20083;-88
2022/03/07 08:45:23;;;;;;;25.30;18.60;;;;;;;0.60;100.00;66849.16;5019952;28;20491;-85
2022/03/07 08:47:53;;;;;;;27.77;19.30;;;;;;;0.68;100.00;66858.16;5041172;28;20181;-87
2022/03/07 08:50:19;;;;;;;25.52;17.40;;;;;;;0.76;100.00;66866.59;5007646;28;20061;-87
2022/03/07 08:52:46;;;;;;;26.10;21.17;;;;;;;0.83;100.00;66879.69;4985398;28;20371;-86
2022/03/07 08:55:13;;;;;;;26.73;20.23;;;;;;;0.91;100.00;66885.53;5004778;28;20495;-89
2022/03/07 08:57:39;;;;;;;28.08;20.27;;;;;;;0.93;100.00;66884.59;5023267;28;20046;-86
2022/03/07 09:00:10;;;;;;;28.08;18.92;;;;;;;0.96;100.00;66885.91;5003962;28;20522;-87
2022/03/07 09:02:36;;;;;;;24.60;19.27;;;;;;;1.03;100.00;66899.03;5017399;28;20044;-85
2022/03/07 09:05:01;;;;;;;25.65;18.58;;;;;;;1.07;100.00;66900.91;5020210;28;20053;-86
2022/03/07 09:07:28;;;;;;;26.83;19.50;;;;;;;1.06;100.00;66902.41;5019375;28;20068;-86
2022/03/07 09:09:56;;;;;;;26.20;17.50;;;;;;;1.08;100.00;66899.41;5000339;28;20092;-87
2022/03/07 09:12:25;;;;;;;26.15;19.33;;;;;;;1.13;99.75;66907.09;5035658;28;20553;-85
2022/03/07 09:14:50;;;;;;;27.48;21.60;;;;;;;1.20;100.00;66914.41;4987080;28;20046;-87
2022/03/07 09:17:16;;;;;;;27.13;20.67;;;;;;;1.23;99.87;66918.34;5005792;28;20049;-88
2022/03/07 09:19:41;;;;;;;28.00;19.73;;;;;;;1.32;100.00;66925.31;5002758;28;20064;-86
2022/03/07 09:22:07;;;;;;;26.48;20.95;;;;;;;1.41;99.82;66940.69;5021707;28;20073;-85
2022/03/07 09:24:33;;;;;;;24.67;18.88;;;;;;;1.51;99.19;66951.38;5018869;28;20140;-86
2022/03/07 09:26:58;;;;;;;25.38;18.55;;;;;;;1.65;99.38;66969.78;4989112;28;20052;-85
2022/03/07 09:29:24;;;;;;;25.80;18.65;;;;;;;1.76;98.45;66973.72;5022428;28;20046;-86
2022/03/07 09:31:49;;;;;;;26.70;17.63;;;;;;;1.94;99.15;66996.06;4988414;28;20565;-85
2022/03/07 09:34:16;;;;;;;25.80;18.40;;;;;;;;;;4987515;28;20049;-85
2022/03/07 09:36:42;;;;;;;23.15;18.38;;;;;;;2.33;98.08;67039.44;5005649;28;20061;-86
2022/03/07 09:39:07;;;;;;;20.90;13.57;;;;;;;2.43;96.92;67050.69;5004630;28;20506;-86
2022/03/07 09:41:36;;;;;;;24.65;16.05;;;;;;;2.61;96.61;67067.22;5005903;28;20069;-86
2022/03/07 09:44:01;;;;;;;22.67;16.05;;;;;;;2.83;96.42;67094.66;4985423;28;20034;-86
2022/03/07 09:46:31;;;;;;;20.95;15.20;;;;;;;2.92;94.13;67101.63;4993051;28;20064;-86
2022/03/07 09:48:56;;;;;;;22.85;14.80;;;;;;;3.10;95.05;67121.91;5011719;28;20057;-84
2022/03/07 09:51:24;;;;;;;22.25;16.50;;;;;;;3.17;92.93;67129.81;5001938;28;20049;-86
2022/03/07 09:53:50;;;;;;;20.10;14.13;;;;;;;3.27;93.23;67145.75;5020821;28;20490;-86
2022/03/07 09:56:16;;;;;;;20.23;13.88;;;;;;;3.27;92.89;67140.50;5003855;28;20498;-85
2022/03/07 09:58:41;;;;;;;23.75;14.10;;;;;;;;;;5011246;28;20112;-87
2022/03/07 10:01:13;;;;;;;16.90;12.43;;;;;;;3.66;92.67;67183.38;5006024;28;20041;-86
2022/03/07 10:03:40;;;;;;;19.08;14.52;;;;;;;3.72;91.45;67195.41;5006750;28;20074;-86
2022/03/07 10:06:19;;;;;;;18.42;12.85;;;;;;;3.97;91.20;67217.22;5007786;28;20096;-86
2022/03/07 10:09:01;;;;;;;20.58;13.90;;;;;;;3.93;90.01;67213.25;5005501;28;20052;-87
2022/03/07 10:11:32;;;;;;;18.33;15.07;;;;;;;4.05;89.89;67232.06;4998084;28;20046;-87
2022/03/07 10:14:05;;;;;;;17.55;11.57;;;;;;;3.94;89.76;67213.81;4981786;28;20367;-86
2022/03/07 10:16:40;;;;;;;18.20;14.25;;;;;;;;;;5010940;28;20624;-86
2022/03/07 10:19:10;;;;;;;20.48;13.65;;;;;;;;;;5014869;28;20046;-87
2022/03/07 10:21:47;;;;;;;17.85;13.98;;;;;;;3.77;89.33;67195.22;5028986;28;22280;-85
2022/03/07 10:24:13;;;;;;;19.70;15.80;;;;;;;3.84;89.74;67203.69;5004386;28;20045;-85
2022/03/07 10:26:43;;;;;;;23.00;12.95;;;;;;;4.24;91.13;67247.69;4998771;28;20095;-85
2022/03/07 10:29:14;;;;;;;15.90;11.30;;;;;;;;;;5026397;28;20045;-86
2022/03/07 10:31:47;;;;;;;14.00;9.80;;;;;;;4.67;82.98;67295.09;5003559;28;20050;-86
2022/03/07 10:34:19;;;;;;;16.08;10.75;;;;;;;4.82;83.18;67313.56;5015416;28;20544;-86
2022/03/07 10:36:50;;;;;;;12.93;9.35;;;;;;;4.93;81.93;67323.34;5013416;28;20108;-85
2022/03/07 10:39:22;;;;;;;17.23;11.32;;;;;;;;;;4998169;28;20042;-86
2022/03/07 10:41:50;;;;;;;16.35;11.65;;;;;;;;;;5034463;28;20075;-87
2022/03/07 10:44:30;;;;;;;16.37;11.47;;;;;;;5.50;83.13;67386.03;5034440;28;20120;-86
2022/03/07 10:47:12;;;;;;;16.23;12.13;;;;;;;5.36;82.37;67373.97;5031772;28;20482;-85
2022/03/07 10:49:52;;;;;;;16.58;11.05;;;;;;;5.47;82.03;67383.22;4998504;28;20042;-86
2022/03/07 10:52:19;;;;;;;15.30;11.50;;;;;;;5.44;83.23;67379.81;5004707;28;20061;-85
2022/03/07 10:54:49;;;;;;;15.60;11.30;;;;;;;5.51;83.14;67387.72;5018267;28;20049;-86
2022/03/07 10:57:22;;;;;;;14.90;10.02;;;;;;;;;;5005368;28;20054;-85
2022/03/07 10:59:54;;;;;;;12.43;9.90;;;;;;;5.20;81.69;67353.81;5023053;28;20046;-86
2022/03/07 11:02:21;;;;;;;18.42;10.05;;;;;;;5.10;82.96;67345.19;4994254;28;20540;-87
2022/03/07 11:04:53;;;;;;;12.05;9.93;;;;;;;;;;4994420;28;20129;-86
2022/03/07 11:07:19;;;;;;;14.55;10.77;;;;;;;5.10;83.12;67342.53;4999822;28;20057;-86
2022/03/07 11:09:52;;;;;;;12.38;9.63;;;;;;;;;;4998613;28;20053;-87
2022/03/07 11:12:17;;;;;;;12.23;9.60;;;;;;;5.56;80.23;67396.00;5033035;28;20050;-86
2022/03/07 11:14:44;;;;;;;12.73;9.73;;;;;;;5.35;78.67;67370.22;5018616;28;20419;-86
2022/03/07 11:17:17;;;;;;;10.52;9.38;;;;;;;5.20;78.83;67347.97;5005889;28;20037;-87
2022/03/07 11:19:46;;;;;;;13.65;9.73;;;;;;;5.09;80.84;67344.06;4987007;28;20049;-85
2022/03/07 11:22:11;;;;;;;14.70;8.75;;;;;;;5.19;79.87;67352.69;5001622;28;20502;-86